createdAt,value
2022-11-08T00:00:01.022Z,100523.47
2022-11-08T00:01:21.479Z,100533.41
2022-11-08T00:02:25.842Z,100534.00
2022-11-08T00:03:29.195Z,100525.13
2022-11-08T00:04:32.141Z,100517.88
2022-11-08T00:05:52.578Z,100523.84
2022-11-08T00:07:12.812Z,100536.22
2022-11-08T00:08:44.485Z,100529.00
2022-11-08T00:10:04.986Z,100532.50
2022-11-08T00:11:25.780Z,100535.78
2022-11-08T00:12:45.897Z,100530.41
2022-11-08T00:14:01.388Z,100532.88
2022-11-08T00:15:04.518Z,100528.31
2022-11-08T00:16:07.931Z,100525.63
2022-11-08T00:17:10.374Z,100529.97
2022-11-08T00:18:14.964Z,100531.59
2022-11-08T00:19:17.368Z,100532.41
2022-11-08T00:20:20.395Z,100534.03
2022-11-08T00:21:22.454Z,100531.38
2022-11-08T00:22:26.180Z,100534.03
2022-11-08T00:23:28.192Z,100529.28
2022-11-08T00:24:31.189Z,100524.72
2022-11-08T00:25:33.200Z,100524.72
2022-11-08T00:26:36.230Z,100528.25
2022-11-08T00:27:39.255Z,100529.88
2022-11-08T00:28:41.358Z,100533.63
2022-11-08T00:29:44.534Z,100526.38
2022-11-08T00:30:46.605Z,100536.06
2022-11-08T00:31:49.640Z,100534.03
2022-11-08T00:32:52.649Z,100533.38
2022-11-08T00:33:56.096Z,100530.69
2022-11-08T00:34:59.123Z,100538.16
2022-11-08T00:36:01.996Z,100537.34
2022-11-08T00:37:05.001Z,100538.16
2022-11-08T00:38:07.224Z,100545.38
2022-11-08T00:39:11.064Z,100534.88
2022-11-08T00:40:14.342Z,100541.06
2022-11-08T00:41:16.391Z,100538.63
2022-11-08T00:42:19.407Z,100538.03
2022-11-08T00:43:21.549Z,100544.41
2022-11-08T00:44:24.673Z,100551.69
2022-11-08T00:45:26.642Z,100543.63
2022-11-08T00:46:29.671Z,100543.84
2022-11-08T00:47:31.675Z,100534.13
2022-11-08T00:48:34.775Z,100537.88
2022-11-08T00:49:38.215Z,100537.06
2022-11-08T00:50:41.838Z,100549.06
2022-11-08T00:51:43.914Z,100540.19
2022-11-08T00:52:47.058Z,100543.72
2022-11-08T00:53:49.079Z,100542.88
2022-11-08T00:54:52.113Z,100544.72
2022-11-08T00:55:59.269Z,100540.41
2022-11-08T00:57:02.328Z,100536.06
2022-11-08T00:58:04.430Z,100546.00
2022-11-08T00:59:07.637Z,100546.25
2022-11-08T01:00:10.880Z,100529.31
2022-11-08T01:01:15.828Z,100537.59
2022-11-08T01:02:17.961Z,100539.22
2022-11-08T01:03:21.299Z,100538.63
2022-11-08T01:04:24.681Z,100540.69
2022-11-08T01:05:28.074Z,100534.50
2022-11-08T01:06:31.353Z,100529.38
2022-11-08T01:07:34.198Z,100541.94
2022-11-08T01:08:37.350Z,100531.44
2022-11-08T01:09:39.428Z,100531.44
2022-11-08T01:10:43.030Z,100539.50
2022-11-08T01:11:47.835Z,100535.97
2022-11-08T01:12:49.919Z,100541.56
2022-11-08T01:13:56.886Z,100533.53
2022-11-08T01:14:58.988Z,100532.50
2022-11-08T01:16:08.222Z,100531.91
2022-11-08T01:17:11.242Z,100538.28
2022-11-08T01:18:16.046Z,100533.97
2022-11-08T01:19:19.413Z,100539.34
2022-11-08T01:20:21.445Z,100543.09
2022-11-08T01:21:26.718Z,100539.81
2022-11-08T01:22:28.730Z,100538.97
2022-11-08T01:23:32.322Z,100535.47
2022-11-08T01:24:35.332Z,100533.84
2022-11-08T01:25:37.877Z,100534.91
2022-11-08T01:26:40.907Z,100538.59
2022-11-08T01:27:44.046Z,100536.75
2022-11-08T01:28:48.501Z,100535.91
2022-11-08T01:29:50.517Z,100532.41
2022-11-08T01:30:53.653Z,100536.97
2022-11-08T01:31:56.855Z,100537.78
2022-11-08T01:32:58.963Z,100531.84
2022-11-08T01:34:02.531Z,100529.94
2022-11-08T01:35:05.209Z,100535.31
2022-11-08T01:36:09.641Z,100528.31
2022-11-08T01:37:13.181Z,100532.06
2022-11-08T01:38:16.614Z,100539.06
2022-11-08T01:39:19.845Z,100536.59
2022-11-08T01:40:21.954Z,100532.47
2022-11-08T01:41:27.741Z,100535.16
2022-11-08T01:42:30.822Z,100535.16
2022-11-08T01:43:41.913Z,100540.75
2022-11-08T01:44:57.941Z,100527.34
2022-11-08T01:46:34.900Z,100531.91
2022-11-08T01:47:38.097Z,100520.56
2022-11-08T01:48:46.324Z,100524.28
2022-11-08T01:49:49.706Z,100529.66
2022-11-08T01:50:53.301Z,100518.13
2022-11-08T01:52:13.790Z,100519.81
2022-11-08T01:53:19.149Z,100520.19
2022-11-08T01:54:29.981Z,100523.09
2022-11-08T01:55:36.475Z,100526.00
2022-11-08T01:56:39.857Z,100528.47
2022-11-08T01:57:48.170Z,100534.06
2022-11-08T01:58:52.809Z,100531.38
2022-11-08T01:59:59.834Z,100528.94
2022-11-08T02:01:02.452Z,100522.72
2022-11-08T02:02:06.139Z,100525.63
2022-11-08T02:03:13.472Z,100522.34
2022-11-08T02:04:17.873Z,100516.16
2022-11-08T02:05:27.705Z,100523.41
2022-11-08T02:06:30.823Z,100519.28
2022-11-08T02:07:35.759Z,100523.81
2022-11-08T02:08:41.557Z,100523.81
2022-11-08T02:09:47.503Z,100516.84
2022-11-08T02:10:51.752Z,100528.81
2022-11-08T02:11:55.413Z,100509.00
2022-11-08T02:12:58.032Z,100513.31
2022-11-08T02:14:03.685Z,100518.69
2022-11-08T02:15:07.318Z,100512.53
2022-11-08T02:16:14.110Z,100514.16
2022-11-08T02:17:16.221Z,100511.47
2022-11-08T02:18:22.308Z,100513.31
2022-11-08T02:19:33.871Z,100513.31
2022-11-08T02:20:37.179Z,100511.47
2022-11-08T02:21:45.180Z,100513.31
2022-11-08T02:22:53.376Z,100507.72
2022-11-08T02:23:58.890Z,100511.25
2022-11-08T02:25:02.428Z,100503.19
2022-11-08T02:26:04.473Z,100502.97
2022-11-08T02:27:07.562Z,100504.63
2022-11-08T02:28:09.595Z,100511.63
2022-11-08T02:29:30.866Z,100509.53
2022-11-08T02:30:33.685Z,100507.66
2022-11-08T02:31:36.670Z,100502.09
2022-11-08T02:32:39.266Z,100501.88
2022-11-08T02:33:43.084Z,100516.91
2022-11-08T02:34:49.042Z,100507.00
2022-11-08T02:35:56.007Z,100511.91
2022-11-08T02:36:59.829Z,100514.59
2022-11-08T02:38:02.989Z,100515.22
2022-11-08T02:39:06.436Z,100511.47
2022-11-08T02:40:10.863Z,100516.84
2022-11-08T02:41:12.931Z,100515.81
2022-11-08T02:42:18.600Z,100512.06
2022-11-08T02:43:21.238Z,100517.22
2022-11-08T02:44:24.221Z,100506.47
2022-11-08T02:45:26.243Z,100514.31
2022-11-08T02:46:29.265Z,100514.31
2022-11-08T02:47:32.352Z,100508.94
2022-11-08T02:48:34.405Z,100512.22
2022-11-08T02:49:37.449Z,100513.84
2022-11-08T02:50:41.000Z,100508.47
2022-11-08T02:51:43.058Z,100510.13
2022-11-08T02:52:46.026Z,100508.47
2022-11-08T02:53:48.144Z,100506.41
2022-11-08T02:54:52.520Z,100513.41
2022-11-08T02:55:54.632Z,100506.41
2022-11-08T02:56:57.673Z,100500.81
2022-11-08T02:57:59.720Z,100507.81
2022-11-08T02:59:02.828Z,100503.25
2022-11-08T03:00:05.433Z,100507.59
2022-11-08T03:01:08.515Z,100503.25
2022-11-08T03:02:11.818Z,100505.94
2022-11-08T03:03:14.013Z,100504.91
2022-11-08T03:04:17.053Z,100507.38
2022-11-08T03:05:19.319Z,100513.78
2022-11-08T03:06:22.340Z,100510.28
2022-11-08T03:07:25.133Z,100513.78
2022-11-08T03:08:28.254Z,100502.22
2022-11-08T03:09:30.297Z,100506.78
2022-11-08T03:10:34.682Z,100505.94
2022-11-08T03:11:36.738Z,100510.50
2022-11-08T03:12:40.547Z,100512.38
2022-11-08T03:13:42.603Z,100509.91
2022-11-08T03:14:45.749Z,100507.22
2022-11-08T03:15:47.822Z,100514.44
2022-11-08T03:16:50.827Z,100506.41
2022-11-08T03:17:52.820Z,100511.16
2022-11-08T03:18:55.871Z,100513.03
2022-11-08T03:19:57.945Z,100514.06
2022-11-08T03:21:01.596Z,100506.03
2022-11-08T03:22:03.802Z,100501.94
2022-11-08T03:23:08.093Z,100503.78
2022-11-08T03:24:11.706Z,100509.38
2022-11-08T03:25:15.278Z,100505.06
2022-11-08T03:26:18.667Z,100503.66
2022-11-08T03:27:21.801Z,100503.03
2022-11-08T03:28:24.183Z,100497.69
2022-11-08T03:29:27.446Z,100502.66
2022-11-08T03:30:29.464Z,100503.72
2022-11-08T03:31:32.515Z,100504.78
2022-11-08T03:32:34.614Z,100505.81
2022-11-08T03:33:37.660Z,100505.19
2022-11-08T03:34:39.828Z,100507.31
2022-11-08T03:35:44.236Z,100510.78
2022-11-08T03:36:47.253Z,100507.50
2022-11-08T03:37:50.959Z,100504.25
2022-11-08T03:38:53.988Z,100504.47
2022-11-08T03:39:56.078Z,100510.03
2022-11-08T03:40:59.183Z,100502.22
2022-11-08T03:42:04.535Z,100511.31
2022-11-08T03:43:07.647Z,100499.16
2022-11-08T03:44:09.834Z,100500.22
2022-11-08T03:45:13.086Z,100502.28
2022-11-08T03:46:16.142Z,100510.56
2022-11-08T03:47:18.206Z,100500.06
2022-11-08T03:48:23.471Z,100495.97
2022-11-08T03:49:26.737Z,100501.53
2022-11-08T03:50:29.849Z,100499.91
2022-11-08T03:51:32.891Z,100500.97
2022-11-08T03:52:41.206Z,100506.97
2022-11-08T03:53:44.237Z,100508.63
2022-11-08T03:54:46.310Z,100496.25
2022-11-08T03:55:49.418Z,100507.19
2022-11-08T03:56:51.492Z,100498.34
2022-11-08T03:57:56.175Z,100502.06
2022-11-08T03:58:59.216Z,100488.88
2022-11-08T04:00:01.234Z,100498.19
2022-11-08T04:01:05.473Z,100499.22
2022-11-08T04:02:07.672Z,100499.44
2022-11-08T04:03:10.835Z,100502.34
2022-11-08T04:04:12.878Z,100507.94
2022-11-08T04:05:17.042Z,100501.72
2022-11-08T04:06:20.040Z,100501.13
2022-11-08T04:07:22.034Z,100513.97
2022-11-08T04:08:25.087Z,100505.09
2022-11-08T04:09:27.160Z,100505.53
2022-11-08T04:10:30.296Z,100497.72
2022-11-08T04:11:50.756Z,100503.25
2022-11-08T04:13:13.025Z,100498.13
2022-11-08T04:14:33.687Z,100503.72
2022-11-08T04:15:37.169Z,100500.44
2022-11-08T04:16:39.431Z,100495.28
2022-11-08T04:18:00.517Z,100507.88
2022-11-08T04:19:21.372Z,100494.50
2022-11-08T04:20:41.964Z,100497.41
2022-11-08T04:21:46.220Z,100489.53
2022-11-08T04:22:48.290Z,100497.81
2022-11-08T04:23:53.184Z,100492.66
2022-11-08T04:24:55.172Z,100499.91
2022-11-08T04:25:59.695Z,100494.75
2022-11-08T04:27:02.727Z,100489.59
2022-11-08T04:28:07.519Z,100496.00
2022-11-08T04:29:11.106Z,100500.53
2022-11-08T04:30:13.535Z,100486.53
2022-11-08T04:31:18.348Z,100488.03
2022-11-08T04:32:20.380Z,100491.31
2022-11-08T04:33:23.996Z,100488.63
2022-11-08T04:34:27.119Z,100488.88
2022-11-08T04:35:30.862Z,100489.06
2022-11-08T04:36:34.403Z,100485.56
2022-11-08T04:37:36.426Z,100489.28
2022-11-08T04:38:39.470Z,100492.19
2022-11-08T04:39:41.474Z,100483.53
2022-11-08T04:40:44.715Z,100483.75
2022-11-08T04:41:47.737Z,100489.94
2022-11-08T04:42:49.747Z,100489.34
2022-11-08T04:43:56.288Z,100493.88
2022-11-08T04:44:58.266Z,100492.22
2022-11-08T04:46:03.578Z,100488.94
2022-11-08T04:47:05.786Z,100490.59
2022-11-08T04:48:09.015Z,100496.19
2022-11-08T04:49:12.023Z,100489.16
2022-11-08T04:50:14.784Z,100494.75
2022-11-08T04:51:20.059Z,100492.28
2022-11-08T04:52:22.081Z,100487.16
2022-11-08T04:53:25.097Z,100486.50
2022-11-08T04:54:27.117Z,100478.69
2022-11-08T04:55:30.127Z,100491.25
2022-11-08T04:56:32.472Z,100487.16
2022-11-08T04:57:35.563Z,100482.03
2022-11-08T04:58:40.848Z,100491.91
2022-11-08T04:59:44.298Z,100490.28
2022-11-08T05:00:47.294Z,100488.63
2022-11-08T05:01:49.496Z,100493.38
2022-11-08T05:02:52.675Z,100489.91
2022-11-08T05:03:56.618Z,100482.88
2022-11-08T05:04:58.635Z,100489.28
2022-11-08T05:06:03.229Z,100490.34
2022-11-08T05:07:05.320Z,100487.84
2022-11-08T05:08:08.305Z,100481.69
2022-11-08T05:09:10.880Z,100484.38
2022-11-08T05:10:14.146Z,100488.88
2022-11-08T05:11:18.198Z,100479.84
2022-11-08T05:12:21.232Z,100478.41
2022-11-08T05:13:23.249Z,100477.34
2022-11-08T05:14:26.249Z,100481.06
2022-11-08T05:15:29.590Z,100485.38
2022-11-08T05:16:33.643Z,100483.75
2022-11-08T05:17:35.643Z,100492.00
2022-11-08T05:18:41.716Z,100486.66
2022-11-08T05:20:02.888Z,100478.84
2022-11-08T05:21:23.649Z,100488.72
2022-11-08T05:22:46.598Z,100476.59
2022-11-08T05:23:51.220Z,100472.25
2022-11-08T05:24:53.181Z,100477.63
2022-11-08T05:25:58.588Z,100481.34
2022-11-08T05:27:00.498Z,100473.31
2022-11-08T05:28:03.506Z,100479.69
2022-11-08T05:29:06.171Z,100474.31
2022-11-08T05:30:09.974Z,100476.00
2022-11-08T05:31:15.104Z,100481.34
2022-11-08T05:32:17.104Z,100473.53
2022-11-08T05:33:20.214Z,100482.34
2022-11-08T05:34:23.230Z,100476.00
2022-11-08T05:35:25.238Z,100485.03
2022-11-08T05:36:28.874Z,100485.88
2022-11-08T05:37:30.918Z,100485.88
2022-11-08T05:38:34.558Z,100478.06
2022-11-08T05:39:36.534Z,100483.41
2022-11-08T05:40:39.534Z,100475.59
2022-11-08T05:41:41.559Z,100478.28
2022-11-08T05:42:44.591Z,100477.44
2022-11-08T05:43:49.764Z,100484.47
2022-11-08T05:44:51.754Z,100476.63
2022-11-08T05:45:54.799Z,100471.47
2022-11-08T05:46:58.210Z,100465.31
2022-11-08T05:48:03.857Z,100471.91
2022-11-08T05:49:07.229Z,100471.09
2022-11-08T05:50:09.396Z,100470.06
2022-11-08T05:51:12.967Z,100476.66
2022-11-08T05:52:15.090Z,100466.16
2022-11-08T05:53:18.446Z,100473.41
2022-11-08T05:54:20.685Z,100463.72
2022-11-08T05:55:23.710Z,100469.06
2022-11-08T05:56:25.721Z,100467.44
2022-11-08T05:57:28.769Z,100460.03
2022-11-08T05:58:32.773Z,100456.34
2022-11-08T05:59:35.877Z,100469.50
2022-11-08T06:00:37.903Z,100462.53
2022-11-08T06:01:41.065Z,100467.88
2022-11-08T06:02:44.681Z,100460.84
2022-11-08T06:03:48.859Z,100458.19
2022-11-08T06:04:50.965Z,100468.06
2022-11-08T06:05:54.458Z,100464.59
2022-11-08T06:06:56.464Z,100469.94
2022-11-08T06:07:59.599Z,100462.94
2022-11-08T06:09:02.659Z,100461.28
2022-11-08T06:10:05.814Z,100459.66
2022-11-08T06:11:11.089Z,100464.19
2022-11-08T06:12:14.077Z,100459.84
2022-11-08T06:13:16.074Z,100455.56
2022-11-08T06:14:19.476Z,100461.94
2022-11-08T06:15:22.773Z,100467.31
2022-11-08T06:16:25.451Z,100451.69
2022-11-08T06:17:30.208Z,100464.00
2022-11-08T06:18:34.755Z,100459.50
2022-11-08T06:19:37.811Z,100469.38
2022-11-08T06:20:39.826Z,100464.84
2022-11-08T06:21:43.083Z,100453.97
2022-11-08T06:22:45.136Z,100460.50
2022-11-08T06:23:48.248Z,100462.16
2022-11-08T06:24:51.349Z,100462.16
2022-11-08T06:25:53.388Z,100458.66
2022-11-08T06:26:56.345Z,100464.84
2022-11-08T06:28:00.907Z,100463.78
2022-11-08T06:29:02.965Z,100461.94
2022-11-08T06:30:07.173Z,100468.09
2022-11-08T06:31:09.734Z,100465.22
2022-11-08T06:32:12.749Z,100463.34
2022-11-08T06:33:15.659Z,100474.06
2022-11-08T06:34:20.427Z,100463.97
2022-11-08T06:35:22.539Z,100461.06
2022-11-08T06:36:25.549Z,100461.06
2022-11-08T06:37:27.537Z,100457.34
2022-11-08T06:38:30.531Z,100460.84
2022-11-08T06:39:33.751Z,100450.97
2022-11-08T06:40:37.453Z,100457.16
2022-11-08T06:41:40.494Z,100458.78
2022-11-08T06:42:42.553Z,100447.25
2022-11-08T06:43:45.578Z,100448.09
2022-11-08T06:44:48.677Z,100453.66
2022-11-08T06:45:50.844Z,100452.63
2022-11-08T06:46:55.813Z,100461.47
2022-11-08T06:47:58.509Z,100452.63
2022-11-08T06:49:01.548Z,100457.75
2022-11-08T06:50:08.136Z,100453.44
2022-11-08T06:51:10.473Z,100458.78
2022-11-08T06:52:13.463Z,100448.09
2022-11-08T06:53:15.873Z,100449.72
2022-11-08T06:54:23.237Z,100458.78
2022-11-08T06:55:28.408Z,100459.63
2022-11-08T06:56:31.532Z,100460.44
2022-11-08T06:57:34.769Z,100459.63
2022-11-08T06:58:37.096Z,100460.44
2022-11-08T06:59:40.143Z,100464.53
2022-11-08T07:00:42.206Z,100454.66
2022-11-08T07:01:45.984Z,100463.50
2022-11-08T07:02:52.237Z,100455.25
2022-11-08T07:03:55.470Z,100454.22
2022-11-08T07:04:57.575Z,100449.66
2022-11-08T07:06:03.963Z,100455.84
2022-11-08T07:07:06.994Z,100455.84
2022-11-08T07:08:09.297Z,100452.16
2022-11-08T07:09:12.369Z,100454.63
2022-11-08T07:10:14.428Z,100452.75
2022-11-08T07:11:18.015Z,100455.41
2022-11-08T07:12:20.022Z,100459.75
2022-11-08T07:13:23.136Z,100454.41
2022-11-08T07:14:26.182Z,100456.25
2022-11-08T07:15:28.793Z,100450.28
2022-11-08T07:16:31.951Z,100450.66
2022-11-08T07:17:38.704Z,100456.03
2022-11-08T07:18:42.286Z,100455.00
2022-11-08T07:19:44.347Z,100449.66
2022-11-08T07:20:47.382Z,100452.34
2022-11-08T07:21:51.887Z,100453.97
2022-11-08T07:22:54.810Z,100454.78
2022-11-08T07:23:57.786Z,100450.84
2022-11-08T07:24:59.766Z,100454.34
2022-11-08T07:26:03.912Z,100456.81
2022-11-08T07:27:07.090Z,100454.13
2022-11-08T07:28:15.677Z,100455.75
2022-11-08T07:29:18.846Z,100452.06
2022-11-08T07:30:20.879Z,100457.41
2022-11-08T07:31:24.059Z,100445.06
2022-11-08T07:32:26.094Z,100451.00
2022-11-08T07:33:29.803Z,100466.88
2022-11-08T07:34:32.276Z,100450.56
2022-11-08T07:35:35.283Z,100455.94
2022-11-08T07:36:38.294Z,100445.84
2022-11-08T07:37:41.664Z,100444.81
2022-11-08T07:38:44.705Z,100447.03
2022-11-08T07:39:46.707Z,100449.50
2022-11-08T07:40:49.864Z,100456.50
2022-11-08T07:41:52.846Z,100446.38
2022-11-08T07:43:11.151Z,100452.34
2022-11-08T07:44:15.563Z,100442.03
2022-11-08T07:45:18.970Z,100445.34
2022-11-08T07:46:22.028Z,100444.28
2022-11-08T07:47:24.054Z,100442.00
2022-11-08T07:48:28.065Z,100439.09
2022-11-08T07:49:30.097Z,100443.00
2022-11-08T07:50:33.727Z,100446.25
2022-11-08T07:51:36.792Z,100446.84
2022-11-08T07:52:38.907Z,100450.97
2022-11-08T07:53:43.789Z,100448.88
2022-11-08T07:54:46.800Z,100449.25
2022-11-08T07:55:50.014Z,100441.81
2022-11-08T07:56:52.019Z,100442.44
2022-11-08T07:58:01.372Z,100444.44
2022-11-08T07:59:04.400Z,100453.06
2022-11-08T08:00:08.378Z,100438.44
2022-11-08T08:01:15.146Z,100439.00
2022-11-08T08:02:17.256Z,100446.63
2022-11-08T08:03:20.976Z,100439.16
2022-11-08T08:04:24.458Z,100441.63
2022-11-08T08:05:26.970Z,100437.69
2022-11-08T08:06:30.022Z,100446.94
2022-11-08T08:07:32.036Z,100450.19
2022-11-08T08:08:35.106Z,100444.41
2022-11-08T08:09:38.483Z,100438.38
2022-11-08T08:10:42.383Z,100442.47
2022-11-08T08:11:45.392Z,100440.16
2022-11-08T08:12:47.402Z,100433.53
2022-11-08T08:13:53.926Z,100440.31
2022-11-08T08:14:56.917Z,100440.09
2022-11-08T08:16:01.558Z,100442.34
2022-11-08T08:17:03.677Z,100448.28
2022-11-08T08:18:08.665Z,100453.22
2022-11-08T08:19:11.833Z,100446.78
2022-11-08T08:20:14.090Z,100441.81
2022-11-08T08:21:17.150Z,100454.16
2022-11-08T08:22:19.227Z,100458.50
2022-11-08T08:23:22.419Z,100447.53
2022-11-08T08:24:26.765Z,100448.16
2022-11-08T08:25:31.139Z,100445.81
2022-11-08T08:26:34.178Z,100451.53
2022-11-08T08:27:36.209Z,100440.59
2022-11-08T08:28:39.194Z,100445.53
2022-11-08T08:29:41.272Z,100443.22
2022-11-08T08:30:44.311Z,100455.34
2022-11-08T08:31:47.363Z,100445.00
2022-11-08T08:33:08.269Z,100449.91
2022-11-08T08:34:15.589Z,100443.28
2022-11-08T08:35:18.734Z,100442.00
2022-11-08T08:36:21.759Z,100449.81
2022-11-08T08:37:23.741Z,100445.28
2022-11-08T08:38:26.825Z,100443.19
2022-11-08T08:39:29.866Z,100438.84
2022-11-08T08:40:34.376Z,100440.50
2022-11-08T08:41:37.563Z,100443.41
2022-11-08T08:42:40.608Z,100439.44
2022-11-08T08:43:43.778Z,100430.38
2022-11-08T08:44:46.808Z,100438.19
2022-11-08T08:45:50.008Z,100430.94
2022-11-08T08:47:01.157Z,100434.91
2022-11-08T08:48:05.000Z,100432.59
2022-11-08T08:49:08.093Z,100433.41
2022-11-08T08:50:10.446Z,100428.63
2022-11-08T08:51:13.756Z,100425.13
2022-11-08T08:52:15.903Z,100428.38
2022-11-08T08:53:19.176Z,100429.00
2022-11-08T08:54:24.586Z,100427.72
2022-11-08T08:55:31.993Z,100419.47
2022-11-08T08:56:35.214Z,100416.56
2022-11-08T08:57:37.266Z,100409.09
2022-11-08T08:58:40.520Z,100417.94
2022-11-08T09:02:36.234Z,100409.38
2022-11-08T09:03:42.868Z,100401.69
2022-11-08T09:04:45.887Z,100408.44
2022-11-08T09:05:49.063Z,100405.53
2022-11-08T09:06:52.303Z,100405.06
2022-11-08T09:07:55.784Z,100401.94
2022-11-08T09:08:58.843Z,100399.81
2022-11-08T09:10:01.188Z,100403.09
2022-11-08T09:11:04.611Z,100399.94
2022-11-08T09:12:11.829Z,100398.06
2022-11-08T09:13:17.834Z,100391.44
2022-11-08T09:14:21.039Z,100391.22
2022-11-08T09:15:23.170Z,100401.25
2022-11-08T09:16:26.209Z,100401.00
2022-11-08T09:17:30.229Z,100394.38
2022-11-08T09:18:35.089Z,100401.72
2022-11-08T09:19:38.140Z,100398.81
2022-11-08T09:20:43.904Z,100392.97
2022-11-08T09:21:46.973Z,100396.25
2022-11-08T09:22:48.995Z,100393.91
2022-11-08T09:23:52.065Z,100389.13
2022-11-08T09:24:54.198Z,100390.53
2022-11-08T09:25:58.543Z,100392.75
2022-11-08T09:27:03.658Z,100387.94
2022-11-08T09:28:07.020Z,100396.38
2022-11-08T09:29:10.150Z,100382.69
2022-11-08T09:30:13.346Z,100390.28
2022-11-08T09:31:15.405Z,100387.16
2022-11-08T09:32:24.800Z,100384.22
2022-11-08T09:33:39.084Z,100391.81
2022-11-08T09:34:42.096Z,100386.19
2022-11-08T09:35:46.249Z,100386.78
2022-11-08T09:36:49.357Z,100391.94
2022-11-08T09:37:53.935Z,100387.38
2022-11-08T09:38:57.020Z,100386.06
2022-11-08T09:39:59.027Z,100386.91
2022-11-08T09:41:26.587Z,100386.44
2022-11-08T09:42:46.777Z,100388.88
2022-11-08T09:44:05.701Z,100369.13
2022-11-08T09:45:18.074Z,100383.03
2022-11-08T09:46:32.541Z,100391.44
2022-11-08T09:47:38.665Z,100390.41
2022-11-08T09:48:45.145Z,100385.03
2022-11-08T09:50:02.422Z,100402.56
2022-11-08T09:51:10.769Z,100398.00
2022-11-08T09:52:22.110Z,100384.56
2022-11-08T09:53:35.281Z,100387.25
2022-11-08T09:54:44.912Z,100382.69
2022-11-08T09:55:53.896Z,100375.41
2022-11-08T09:56:56.927Z,100374.81
2022-11-08T09:58:07.017Z,100377.53
2022-11-08T09:59:31.647Z,100384.56
2022-11-08T10:00:36.655Z,100368.41
2022-11-08T10:01:40.162Z,100380.78
2022-11-08T10:02:42.486Z,100377.88
2022-11-08T10:03:50.160Z,100367.94
2022-11-08T10:04:59.425Z,100369.56
2022-11-08T10:06:24.640Z,100365.84
2022-11-08T10:07:37.427Z,100366.41
2022-11-08T10:08:45.831Z,100364.53
2022-11-08T10:10:04.220Z,100366.19
2022-11-08T10:11:35.273Z,100358.69
2022-11-08T10:12:41.671Z,100363.84
2022-11-08T10:13:57.590Z,100352.03
2022-11-08T10:15:15.749Z,100356.16
2022-11-08T10:16:28.324Z,100346.19
2022-11-08T10:17:42.594Z,100349.47
2022-11-08T10:19:06.856Z,100347.59
2022-11-08T10:20:19.622Z,100344.91
2022-11-08T10:21:39.196Z,100353.78
2022-11-08T10:22:52.720Z,100339.28
2022-11-08T10:24:03.365Z,100331.22
2022-11-08T10:25:19.121Z,100336.59
2022-11-08T10:26:27.748Z,100337.63
2022-11-08T10:27:36.835Z,100334.94
2022-11-08T10:28:44.450Z,100321.50
2022-11-08T10:29:47.562Z,100327.94
2022-11-08T10:30:52.216Z,100322.56
2022-11-08T10:32:01.749Z,100312.88
2022-11-08T10:33:17.302Z,100302.34
2022-11-08T10:34:27.392Z,100313.91
2022-11-08T10:35:37.300Z,100311.22
2022-11-08T10:36:42.094Z,100296.97
2022-11-08T10:37:45.902Z,100310.19
2022-11-08T10:38:56.070Z,100304.78
2022-11-08T10:40:03.606Z,100295.06
2022-11-08T10:41:16.873Z,100296.16
2022-11-08T10:42:26.726Z,100292.38
2022-11-08T10:43:35.310Z,100285.38
2022-11-08T10:44:41.466Z,100293.44
2022-11-08T10:45:44.787Z,100287.00
2022-11-08T10:46:50.869Z,100285.13
2022-11-08T10:47:55.388Z,100285.13
2022-11-08T10:49:02.689Z,100280.59
2022-11-08T10:50:15.706Z,100284.91
2022-11-08T10:51:18.997Z,100283.03
2022-11-08T10:52:29.085Z,100276.59
2022-11-08T10:53:32.685Z,100274.47
2022-11-08T10:54:50.969Z,100268.84
2022-11-08T10:56:00.548Z,100278.09
2022-11-08T10:57:02.591Z,100264.63
2022-11-08T10:58:06.092Z,100275.16
2022-11-08T10:59:30.352Z,100271.72
2022-11-08T11:00:34.535Z,100272.56
2022-11-08T11:01:36.990Z,100270.75
2022-11-08T11:02:40.110Z,100274.03
2022-11-08T11:03:42.466Z,100269.22
2022-11-08T11:04:45.557Z,100266.28
2022-11-08T11:05:59.915Z,100265.56
2022-11-08T11:07:03.685Z,100265.09
2022-11-08T11:08:19.019Z,100263.78
2022-11-08T11:09:22.484Z,100271.38
2022-11-08T11:10:28.044Z,100273.59
2022-11-08T11:11:38.456Z,100270.66
2022-11-08T11:12:40.467Z,100262.09
2022-11-08T11:13:43.570Z,100266.97
2022-11-08T11:14:45.732Z,100266.50
2022-11-08T11:15:51.342Z,100267.06
2022-11-08T11:16:58.033Z,100268.69
2022-11-08T11:18:01.158Z,100266.91
2022-11-08T11:19:06.980Z,100260.47
2022-11-08T11:20:22.172Z,100258.91
2022-11-08T11:21:26.720Z,100254.94
2022-11-08T11:22:32.271Z,100254.44
2022-11-08T11:23:42.057Z,100258.25
2022-11-08T11:24:50.918Z,100264.22
2022-11-08T11:25:53.055Z,100255.63
2022-11-08T11:27:07.449Z,100255.97
2022-11-08T11:28:14.783Z,100255.72
2022-11-08T11:29:22.821Z,100264.38
2022-11-08T11:30:30.091Z,100250.91
2022-11-08T11:31:33.069Z,100260.38
2022-11-08T11:32:36.535Z,100263.66
2022-11-08T11:33:46.158Z,100264.78
2022-11-08T11:34:54.536Z,100263.47
2022-11-08T11:36:02.111Z,100248.44
2022-11-08T11:37:18.106Z,100259.53
2022-11-08T11:38:36.498Z,100262.84
2022-11-08T11:39:45.965Z,100262.34
2022-11-08T11:40:51.094Z,100269.06
2022-11-08T11:41:58.557Z,100262.66
2022-11-08T11:43:10.799Z,100255.16
2022-11-08T11:44:20.051Z,100247.88
2022-11-08T11:45:30.047Z,100248.44
2022-11-08T11:46:41.715Z,100263.56
2022-11-08T11:47:48.015Z,100240.84
2022-11-08T11:48:59.581Z,100245.00
2022-11-08T11:50:12.569Z,100242.31
2022-11-08T11:51:16.002Z,100242.88
2022-11-08T11:52:19.987Z,100238.28
2022-11-08T11:53:26.276Z,100234.81
2022-11-08T11:54:32.305Z,100231.03
2022-11-08T11:55:49.675Z,100241.00
2022-11-08T11:56:59.279Z,100219.16
2022-11-08T11:58:13.518Z,100213.00
2022-11-08T11:59:35.095Z,100206.78
2022-11-08T12:00:41.778Z,100203.81
2022-11-08T12:02:09.501Z,100201.94
2022-11-08T12:03:34.431Z,100207.91
2022-11-08T12:04:53.479Z,100199.00
2022-11-08T12:06:12.361Z,100206.84
2022-11-08T12:07:24.926Z,100207.41
2022-11-08T12:08:36.917Z,100200.94
2022-11-08T12:09:54.675Z,100198.25
2022-11-08T12:11:13.991Z,100190.72
2022-11-08T12:12:29.620Z,100192.09
2022-11-08T12:13:53.058Z,100189.16
2022-11-08T12:15:05.509Z,100188.91
2022-11-08T12:16:15.492Z,100193.22
2022-11-08T12:17:32.297Z,100185.97
2022-11-08T12:18:47.669Z,100185.47
2022-11-08T12:20:03.899Z,100177.63
2022-11-08T12:21:11.474Z,100175.50
2022-11-08T12:22:34.508Z,100181.69
2022-11-08T12:23:59.794Z,100179.81
2022-11-08T12:25:11.530Z,100182.50
2022-11-08T12:26:23.574Z,100181.69
2022-11-08T12:27:39.433Z,100174.41
2022-11-08T12:28:59.256Z,100187.91
2022-11-08T12:30:05.405Z,100178.19
2022-11-08T12:31:20.184Z,100184.38